createdAt,value
2023-03-31T00:00:26.666Z,42.29
2023-03-31T00:01:00.997Z,42.57
2023-03-31T00:01:36.783Z,42.62
2023-03-31T00:02:13.972Z,42.25
2023-03-31T00:02:47.716Z,42.46
2023-03-31T00:03:22.922Z,42.32
2023-03-31T00:04:03.913Z,42.15
2023-03-31T00:04:36.353Z,42.31
2023-03-31T00:05:09.956Z,42.26
2023-03-31T00:05:48.324Z,42.19
2023-03-31T00:06:20.543Z,41.77
2023-03-31T00:06:56.639Z,41.47
2023-03-31T00:07:28.854Z,41.77
2023-03-31T00:08:02.071Z,41.68
2023-03-31T00:08:40.493Z,41.48
2023-03-31T00:09:16.122Z,41.84
2023-03-31T00:09:48.767Z,41.74
2023-03-31T00:10:23.841Z,42.06
2023-03-31T00:11:00.190Z,41.92
2023-03-31T00:11:32.388Z,41.80
2023-03-31T00:12:07.593Z,41.99
2023-03-31T00:12:39.763Z,42.03
2023-03-31T00:13:12.136Z,41.85
2023-03-31T00:13:46.897Z,41.45
2023-03-31T00:14:20.957Z,41.45
2023-03-31T00:14:53.578Z,41.42
2023-03-31T00:15:26.312Z,41.87
2023-03-31T00:16:02.013Z,42.03
2023-03-31T00:16:34.531Z,42.27
2023-03-31T00:17:09.648Z,41.89
2023-03-31T00:17:43.708Z,42.15
2023-03-31T00:18:16.269Z,41.65
2023-03-31T00:18:53.627Z,41.15
2023-03-31T00:19:25.814Z,41.18
2023-03-31T00:20:00.529Z,40.90
2023-03-31T00:20:38.304Z,41.48
2023-03-31T00:21:14.834Z,41.76
2023-03-31T00:21:48.479Z,41.25
2023-03-31T00:22:27.788Z,41.50
2023-03-31T00:23:01.927Z,41.38
2023-03-31T00:23:34.309Z,41.22
2023-03-31T00:24:12.772Z,40.74
2023-03-31T00:24:45.119Z,40.65
2023-03-31T00:25:17.528Z,40.85
2023-03-31T00:25:52.319Z,41.16
2023-03-31T00:26:26.460Z,41.44
2023-03-31T00:27:01.524Z,40.91
2023-03-31T00:27:33.684Z,40.94
2023-03-31T00:28:05.967Z,41.49
2023-03-31T00:28:40.751Z,41.03
2023-03-31T00:29:14.346Z,40.80
2023-03-31T00:29:47.501Z,40.49
2023-03-31T00:30:22.929Z,40.75
2023-03-31T00:31:01.218Z,40.62
2023-03-31T00:31:34.689Z,40.34
2023-03-31T00:32:09.585Z,40.59
2023-03-31T00:32:42.052Z,40.16
2023-03-31T00:33:14.586Z,40.44
2023-03-31T00:33:53.154Z,40.71
2023-03-31T00:34:25.430Z,40.50
2023-03-31T00:34:58.043Z,40.10
2023-03-31T00:35:30.242Z,40.19
2023-03-31T00:36:06.761Z,40.60
2023-03-31T00:36:46.056Z,40.88
2023-03-31T00:37:18.314Z,40.56
2023-03-31T00:37:54.028Z,39.90
2023-03-31T00:38:29.247Z,40.31
2023-03-31T00:39:08.956Z,40.36
2023-03-31T00:39:41.632Z,40.25
2023-03-31T00:40:14.157Z,40.36
2023-03-31T00:40:47.493Z,40.07
2023-03-31T00:41:22.720Z,40.60
2023-03-31T00:41:54.895Z,40.30
2023-03-31T00:42:30.518Z,40.93
2023-03-31T00:43:03.544Z,41.16
2023-03-31T00:43:38.193Z,41.33
2023-03-31T00:44:19.287Z,40.87
2023-03-31T00:45:24.666Z,40.94
2023-03-31T00:46:07.951Z,41.06
2023-03-31T00:46:47.304Z,40.44
2023-03-31T00:47:21.271Z,40.49
2023-03-31T00:47:58.506Z,40.66
2023-03-31T00:48:31.875Z,40.64
2023-03-31T00:49:16.588Z,40.66
2023-03-31T00:49:51.918Z,40.84
2023-03-31T00:50:29.224Z,40.66
2023-03-31T00:51:08.445Z,40.76
2023-03-31T00:51:41.052Z,40.95
2023-03-31T00:52:18.160Z,40.70
2023-03-31T00:52:58.435Z,40.40
2023-03-31T00:53:33.766Z,40.82
2023-03-31T00:54:08.677Z,40.57
2023-03-31T00:54:45.396Z,41.04
2023-03-31T00:55:22.759Z,41.10
2023-03-31T00:55:59.502Z,41.03
2023-03-31T00:56:40.205Z,40.92
2023-03-31T00:57:13.185Z,41.45
2023-03-31T00:57:47.179Z,41.22
2023-03-31T00:58:28.357Z,41.30
2023-03-31T00:59:07.946Z,41.41
2023-03-31T00:59:47.525Z,41.55
2023-03-31T01:00:20.391Z,41.37
2023-03-31T01:00:53.224Z,41.68
2023-03-31T01:01:26.769Z,41.73
2023-03-31T01:02:03.633Z,41.73
2023-03-31T01:02:41.653Z,42.11
2023-03-31T01:03:14.375Z,41.83
2023-03-31T01:03:50.747Z,41.78
2023-03-31T01:04:26.635Z,41.92
2023-03-31T01:05:02.581Z,41.96
2023-03-31T01:05:41.328Z,42.08
2023-03-31T01:06:15.410Z,41.64
2023-03-31T01:06:57.584Z,41.92
2023-03-31T01:07:41.016Z,41.51
2023-03-31T01:08:15.195Z,41.72
2023-03-31T01:08:50.188Z,41.43
2023-03-31T01:09:25.173Z,41.44
2023-03-31T01:10:00.413Z,42.20
2023-03-31T01:10:41.870Z,41.83
2023-03-31T01:11:19.980Z,41.80
2023-03-31T01:11:53.581Z,41.45
2023-03-31T01:12:27.009Z,41.46
2023-03-31T01:13:02.098Z,41.09
2023-03-31T01:13:37.723Z,41.27
2023-03-31T01:14:10.739Z,41.06
2023-03-31T01:14:45.559Z,41.12
2023-03-31T01:15:18.322Z,41.00
2023-03-31T01:15:50.781Z,41.13
2023-03-31T01:16:26.300Z,40.73
2023-03-31T01:16:59.370Z,41.15
2023-03-31T01:17:32.114Z,41.11
2023-03-31T01:18:10.203Z,41.12
2023-03-31T01:18:46.711Z,40.89
2023-03-31T01:19:28.956Z,40.86
2023-03-31T01:20:15.957Z,40.97
2023-03-31T01:21:26.160Z,40.99
2023-03-31T01:22:38.048Z,40.78
2023-03-31T01:23:31.860Z,40.93
2023-03-31T01:24:47.600Z,41.26
2023-03-31T01:25:50.445Z,40.78
2023-03-31T01:26:45.977Z,40.84
2023-03-31T01:27:49.307Z,40.83
2023-03-31T01:28:34.936Z,41.44
2023-03-31T01:29:19.598Z,41.37
2023-03-31T01:30:17.145Z,41.01
2023-03-31T01:31:13.986Z,41.14
2023-03-31T01:32:16.521Z,41.39
2023-03-31T01:33:15.768Z,41.44
2023-03-31T01:34:20.774Z,41.34
2023-03-31T01:35:22.791Z,41.52
2023-03-31T01:36:13.028Z,41.84
2023-03-31T01:37:24.032Z,41.82
2023-03-31T01:38:07.507Z,41.72
2023-03-31T01:39:16.787Z,42.09
2023-03-31T01:40:16.539Z,41.93
2023-03-31T01:41:04.301Z,42.05
2023-03-31T01:41:47.364Z,42.43
2023-03-31T01:42:24.294Z,42.40
2023-03-31T01:43:04.369Z,42.12
2023-03-31T01:43:44.057Z,42.10
2023-03-31T01:44:24.575Z,42.11
2023-03-31T01:45:06.548Z,42.50
2023-03-31T01:45:51.915Z,42.34
2023-03-31T01:46:34.524Z,42.42
2023-03-31T01:47:14.618Z,42.50
2023-03-31T01:47:52.499Z,42.47
2023-03-31T01:48:42.190Z,42.43
2023-03-31T01:49:23.199Z,42.49
2023-03-31T01:50:05.075Z,42.66
2023-03-31T01:50:46.936Z,42.69
2023-03-31T01:51:27.769Z,42.46
2023-03-31T01:52:07.790Z,42.71
2023-03-31T01:52:46.237Z,42.58
2023-03-31T01:53:26.307Z,42.59
2023-03-31T01:54:03.940Z,43.04
2023-03-31T01:54:44.284Z,42.87
2023-03-31T01:55:25.789Z,43.35
2023-03-31T01:56:06.166Z,43.20
2023-03-31T01:56:44.056Z,43.16
2023-03-31T01:57:20.682Z,42.92
2023-03-31T01:57:58.447Z,42.71
2023-03-31T01:58:39.208Z,42.80
2023-03-31T01:59:14.985Z,42.51
2023-03-31T01:59:55.763Z,42.75
2023-03-31T02:00:33.566Z,42.27
2023-03-31T02:01:13.779Z,42.56
2023-03-31T02:01:55.608Z,42.85
2023-03-31T02:02:31.664Z,42.43
2023-03-31T02:03:10.996Z,42.77
2023-03-31T02:03:50.969Z,43.02
2023-03-31T02:04:26.705Z,42.65
2023-03-31T02:05:03.365Z,43.06
2023-03-31T02:05:44.838Z,42.64
2023-03-31T02:06:22.203Z,42.56
2023-03-31T02:06:58.474Z,42.58
2023-03-31T02:07:38.063Z,42.80
2023-03-31T02:08:13.774Z,42.39
2023-03-31T02:08:52.683Z,42.53
2023-03-31T02:09:32.351Z,42.49
2023-03-31T02:10:08.655Z,42.68
2023-03-31T02:10:46.077Z,42.01
2023-03-31T02:11:21.353Z,41.92
2023-03-31T02:11:56.403Z,42.19
2023-03-31T02:12:36.111Z,42.10
2023-03-31T02:13:11.891Z,42.43
2023-03-31T02:13:54.204Z,42.00
2023-03-31T02:14:31.317Z,41.79
2023-03-31T02:15:07.922Z,42.00
2023-03-31T02:15:49.849Z,41.92
2023-03-31T02:16:26.876Z,42.12
2023-03-31T02:17:02.498Z,42.24
2023-03-31T02:17:40.678Z,42.27
2023-03-31T02:18:18.936Z,42.04
2023-03-31T02:19:02.805Z,42.43
2023-03-31T02:19:39.869Z,42.27
2023-03-31T02:20:17.198Z,42.18
2023-03-31T02:20:52.306Z,42.04
2023-03-31T02:21:24.628Z,42.14
2023-03-31T02:21:59.632Z,41.89
2023-03-31T02:22:36.933Z,41.93
2023-03-31T02:23:15.629Z,41.73
2023-03-31T02:23:51.044Z,41.79
2023-03-31T02:24:26.807Z,41.68
2023-03-31T02:25:05.130Z,41.89
2023-03-31T02:25:42.545Z,41.77
2023-03-31T02:26:24.551Z,42.12
2023-03-31T02:27:14.033Z,42.39
2023-03-31T02:27:51.945Z,42.26
2023-03-31T02:28:26.932Z,42.29
2023-03-31T02:29:01.967Z,41.99
2023-03-31T02:29:35.124Z,42.00
2023-03-31T02:30:09.185Z,41.81
2023-03-31T02:30:51.044Z,41.72
2023-03-31T02:31:29.508Z,42.44
2023-03-31T02:32:08.251Z,42.01
2023-03-31T02:32:46.884Z,42.11
2023-03-31T02:33:20.138Z,42.19
2023-03-31T02:33:52.584Z,42.62
2023-03-31T02:34:27.351Z,42.42
2023-03-31T02:35:01.206Z,42.35
2023-03-31T02:35:35.205Z,42.06
2023-03-31T02:36:10.934Z,42.15
2023-03-31T02:36:45.926Z,42.22
2023-03-31T02:37:21.213Z,42.27
2023-03-31T02:37:58.997Z,42.15
2023-03-31T02:38:36.789Z,42.23
2023-03-31T02:39:17.184Z,42.20
2023-03-31T02:39:52.964Z,42.03
2023-03-31T02:40:27.869Z,42.25
2023-03-31T02:41:02.863Z,41.91
2023-03-31T02:41:38.227Z,41.99
2023-03-31T02:42:11.372Z,41.91
2023-03-31T02:42:46.568Z,42.13
2023-03-31T02:43:18.972Z,41.94
2023-03-31T02:43:53.738Z,41.96
2023-03-31T02:44:28.839Z,42.22
2023-03-31T02:45:03.578Z,42.28
2023-03-31T02:45:47.265Z,42.15
2023-03-31T02:46:19.855Z,41.90
2023-03-31T02:46:52.643Z,41.80
2023-03-31T02:47:27.567Z,42.02
2023-03-31T02:47:59.901Z,42.21
2023-03-31T02:48:36.728Z,42.21
2023-03-31T02:49:14.474Z,42.22
2023-03-31T02:49:50.200Z,42.31
2023-03-31T02:50:33.287Z,41.81
2023-03-31T02:51:40.971Z,41.94
2023-03-31T02:52:45.089Z,42.15
2023-03-31T02:53:29.140Z,42.20
2023-03-31T02:54:25.570Z,42.30
2023-03-31T02:55:21.427Z,42.61
2023-03-31T02:56:08.810Z,42.77
2023-03-31T02:57:07.372Z,42.49
2023-03-31T02:58:14.979Z,42.99
2023-03-31T02:59:17.089Z,42.88
2023-03-31T03:00:04.950Z,42.46
2023-03-31T03:00:59.002Z,42.79
2023-03-31T03:01:50.931Z,42.88
2023-03-31T03:02:36.136Z,42.70
2023-03-31T03:03:20.613Z,42.96
2023-03-31T03:04:02.736Z,42.98
2023-03-31T03:04:53.480Z,42.53
2023-03-31T03:05:36.745Z,42.60
2023-03-31T03:06:44.585Z,42.50
2023-03-31T03:07:30.306Z,42.57
2023-03-31T03:08:13.587Z,42.56
2023-03-31T03:09:05.316Z,42.30
2023-03-31T03:09:49.665Z,43.11
2023-03-31T03:10:37.598Z,42.85
2023-03-31T03:11:18.604Z,43.30
2023-03-31T03:12:08.906Z,42.69
2023-03-31T03:12:45.640Z,42.75
2023-03-31T03:13:24.812Z,42.63
2023-03-31T03:14:06.327Z,42.61
2023-03-31T03:14:48.362Z,43.46
2023-03-31T03:15:29.193Z,43.37
2023-03-31T03:16:06.668Z,43.00
2023-03-31T03:16:46.420Z,43.00
2023-03-31T03:17:25.173Z,43.08
2023-03-31T03:17:58.871Z,42.57
2023-03-31T03:18:34.324Z,42.94
2023-03-31T03:19:07.847Z,42.70
2023-03-31T03:19:41.792Z,42.54
2023-03-31T03:20:18.042Z,43.07
2023-03-31T03:20:51.171Z,42.73
2023-03-31T03:21:23.452Z,42.90
2023-03-31T03:21:58.848Z,42.74
2023-03-31T03:22:31.200Z,42.66
2023-03-31T03:23:03.463Z,42.49
2023-03-31T03:23:38.401Z,42.95
2023-03-31T03:24:10.716Z,42.75
2023-03-31T03:24:42.983Z,42.78
2023-03-31T03:25:20.597Z,43.07
2023-03-31T03:25:52.818Z,42.85
2023-03-31T03:26:28.338Z,42.76
2023-03-31T03:27:03.111Z,42.52
2023-03-31T03:27:38.048Z,42.76
2023-03-31T03:28:10.707Z,42.80
2023-03-31T03:28:43.683Z,42.99
2023-03-31T03:29:18.479Z,42.77
2023-03-31T03:29:51.300Z,42.74
2023-03-31T03:30:23.527Z,42.80
2023-03-31T03:30:58.375Z,42.91
2023-03-31T03:31:31.023Z,43.09
2023-03-31T03:32:03.248Z,42.58
2023-03-31T03:32:38.523Z,42.68
2023-03-31T03:33:17.363Z,42.77
2023-03-31T03:33:50.033Z,42.46
2023-03-31T03:34:25.802Z,43.13
2023-03-31T03:34:57.972Z,42.68
2023-03-31T03:35:30.115Z,42.83
2023-03-31T03:36:05.157Z,42.86
2023-03-31T03:36:40.461Z,42.87
2023-03-31T03:37:12.650Z,42.71
2023-03-31T03:37:44.889Z,42.98
2023-03-31T03:38:19.789Z,42.97
2023-03-31T03:38:52.108Z,43.05
2023-03-31T03:39:24.299Z,43.19
2023-03-31T03:39:59.051Z,43.01
2023-03-31T03:40:31.255Z,43.16
2023-03-31T03:41:03.571Z,42.66
2023-03-31T03:41:39.632Z,42.71
2023-03-31T03:42:14.478Z,43.26
2023-03-31T03:42:46.674Z,43.33
2023-03-31T03:43:21.453Z,43.00
2023-03-31T03:43:53.620Z,42.55
2023-03-31T03:44:26.039Z,42.74
2023-03-31T03:45:01.537Z,42.63
2023-03-31T03:45:35.288Z,42.96
2023-03-31T03:46:07.788Z,42.72
2023-03-31T03:46:42.745Z,42.78
2023-03-31T03:47:15.315Z,42.50
2023-03-31T03:47:47.537Z,42.52
2023-03-31T03:48:23.001Z,42.92
2023-03-31T03:48:56.026Z,42.77
2023-03-31T03:49:30.814Z,42.98
2023-03-31T03:50:03.165Z,42.92
2023-03-31T03:50:37.478Z,42.82
2023-03-31T03:51:12.308Z,42.63
2023-03-31T03:51:44.479Z,42.71
2023-03-31T03:52:19.574Z,42.75
2023-03-31T03:52:51.846Z,42.61
2023-03-31T03:53:23.994Z,42.96
2023-03-31T03:53:58.798Z,42.94
2023-03-31T03:54:31.109Z,42.70
2023-03-31T03:55:03.386Z,42.78
2023-03-31T03:55:38.196Z,42.63
2023-03-31T03:56:10.538Z,42.88
2023-03-31T03:56:42.840Z,43.07
2023-03-31T03:57:20.347Z,42.59
2023-03-31T03:57:52.544Z,42.80
2023-03-31T03:58:24.847Z,42.51
2023-03-31T03:58:59.663Z,42.89
2023-03-31T03:59:31.856Z,42.69
2023-03-31T04:00:10.485Z,42.76
2023-03-31T04:00:45.429Z,42.83
2023-03-31T04:01:18.351Z,42.57
2023-03-31T04:01:53.638Z,42.32
2023-03-31T04:02:28.897Z,42.73
2023-03-31T04:03:01.972Z,42.69
2023-03-31T04:03:36.759Z,42.68
2023-03-31T04:04:09.175Z,42.28
2023-03-31T04:04:41.455Z,42.51
2023-03-31T04:05:16.354Z,42.51
2023-03-31T04:05:50.098Z,42.64
2023-03-31T04:06:22.292Z,42.66
2023-03-31T04:06:57.103Z,42.45
2023-03-31T04:07:29.352Z,42.69
2023-03-31T04:08:01.579Z,42.69
2023-03-31T04:08:37.173Z,42.36
2023-03-31T04:09:09.380Z,42.90
2023-03-31T04:09:41.648Z,42.63
2023-03-31T04:10:16.529Z,42.57
2023-03-31T04:10:49.975Z,42.82
2023-03-31T04:11:22.506Z,43.00
2023-03-31T04:11:57.411Z,42.65
2023-03-31T04:12:34.466Z,42.95
2023-03-31T04:13:07.044Z,42.55
2023-03-31T04:13:41.813Z,42.86
2023-03-31T04:14:13.994Z,42.66
2023-03-31T04:14:46.221Z,42.54
2023-03-31T04:15:21.066Z,42.82
2023-03-31T04:15:53.340Z,42.82
2023-03-31T04:16:25.784Z,43.12
2023-03-31T04:17:00.698Z,42.77
2023-03-31T04:17:34.829Z,42.90
2023-03-31T04:18:07.253Z,43.29
2023-03-31T04:18:42.997Z,43.60
2023-03-31T04:19:19.470Z,43.23
2023-03-31T04:19:53.139Z,43.07
2023-03-31T04:20:28.039Z,42.67
2023-03-31T04:21:06.856Z,42.92
2023-03-31T04:21:45.636Z,42.48
2023-03-31T04:22:20.803Z,42.17
2023-03-31T04:22:52.982Z,42.54
2023-03-31T04:23:26.792Z,42.27
2023-03-31T04:24:01.912Z,42.62
2023-03-31T04:24:38.987Z,42.55
2023-03-31T04:25:16.745Z,42.83
2023-03-31T04:25:50.152Z,42.29
2023-03-31T04:26:31.092Z,42.21
2023-03-31T04:27:05.003Z,42.08
2023-03-31T04:27:46.798Z,42.28
2023-03-31T04:28:21.615Z,42.48
2023-03-31T04:28:53.788Z,42.39
2023-03-31T04:29:26.854Z,42.39
2023-03-31T04:30:01.721Z,42.27
2023-03-31T04:30:33.892Z,42.28
2023-03-31T04:31:06.512Z,42.08
2023-03-31T04:31:43.196Z,42.26
2023-03-31T04:32:21.796Z,42.17
2023-03-31T04:32:56.723Z,42.07
2023-03-31T04:33:34.307Z,42.49
2023-03-31T04:34:07.096Z,42.30
2023-03-31T04:34:46.725Z,42.58
2023-03-31T04:35:20.870Z,42.72
2023-03-31T04:35:53.235Z,42.53
2023-03-31T04:36:29.166Z,42.81
2023-03-31T04:37:03.107Z,42.61
2023-03-31T04:37:35.258Z,42.56
2023-03-31T04:38:10.201Z,42.68
2023-03-31T04:38:42.441Z,42.87
2023-03-31T04:39:16.144Z,42.73
2023-03-31T04:39:54.770Z,42.90
2023-03-31T04:40:26.964Z,43.17
2023-03-31T04:40:59.228Z,42.57
2023-03-31T04:41:34.076Z,42.92
2023-03-31T04:42:06.318Z,42.90
2023-03-31T04:42:41.265Z,42.66
2023-03-31T04:43:16.717Z,42.67
2023-03-31T04:43:49.005Z,42.98
2023-03-31T04:44:21.302Z,43.23
2023-03-31T04:44:56.066Z,43.07
2023-03-31T04:45:28.275Z,42.93
2023-03-31T04:46:00.505Z,42.77
2023-03-31T04:46:33.045Z,42.77
2023-03-31T04:47:08.002Z,42.38
2023-03-31T04:47:40.362Z,42.82
2023-03-31T04:48:13.068Z,43.25
2023-03-31T04:48:48.000Z,43.32
2023-03-31T04:49:20.628Z,42.80
2023-03-31T04:49:52.912Z,42.69
2023-03-31T04:50:28.653Z,42.76
2023-03-31T04:51:00.979Z,42.68
2023-03-31T04:51:36.073Z,42.81
2023-03-31T04:52:08.246Z,42.87
2023-03-31T04:52:40.964Z,42.83
2023-03-31T04:53:15.725Z,42.74
2023-03-31T04:53:47.922Z,42.49
2023-03-31T04:54:20.358Z,42.79
2023-03-31T04:54:55.114Z,42.68
2023-03-31T04:55:27.458Z,42.81
2023-03-31T04:55:59.735Z,43.01
2023-03-31T04:56:34.524Z,42.96
2023-03-31T04:57:06.785Z,43.52
2023-03-31T04:57:42.300Z,43.09
2023-03-31T04:58:17.088Z,43.35
2023-03-31T04:58:49.271Z,42.95
2023-03-31T04:59:21.465Z,43.42
2023-03-31T04:59:56.226Z,43.05
2023-03-31T05:00:29.172Z,42.96
2023-03-31T05:01:01.434Z,43.11
2023-03-31T05:01:36.718Z,43.14
2023-03-31T05:02:09.794Z,43.08
2023-03-31T05:02:44.757Z,43.21
2023-03-31T05:03:17.115Z,42.99
2023-03-31T05:03:49.586Z,43.04
2023-03-31T05:04:24.600Z,43.18
2023-03-31T05:04:56.784Z,42.89
2023-03-31T05:05:29.011Z,42.73
2023-03-31T05:06:04.161Z,42.70
2023-03-31T05:06:36.892Z,42.86
2023-03-31T05:07:09.078Z,42.67
2023-03-31T05:07:43.915Z,43.14
2023-03-31T05:08:16.209Z,42.75
2023-03-31T05:08:48.477Z,43.14
2023-03-31T05:09:23.498Z,42.97
2023-03-31T05:09:55.807Z,42.73
2023-03-31T05:10:28.033Z,43.07
2023-03-31T05:11:02.816Z,43.07
2023-03-31T05:11:35.002Z,43.28
2023-03-31T05:12:07.873Z,43.05
2023-03-31T05:12:45.231Z,43.44
2023-03-31T05:13:17.541Z,43.05
2023-03-31T05:13:49.700Z,43.42
2023-03-31T05:14:24.493Z,43.08
2023-03-31T05:14:56.847Z,43.45
2023-03-31T05:15:32.894Z,43.18
2023-03-31T05:16:08.435Z,42.76
2023-03-31T05:16:42.229Z,42.80
2023-03-31T05:17:18.040Z,42.87
2023-03-31T05:17:51.023Z,43.31
2023-03-31T05:18:23.196Z,43.20
2023-03-31T05:18:57.958Z,42.91
2023-03-31T05:19:30.228Z,43.33
2023-03-31T05:20:06.276Z,43.11
2023-03-31T05:20:41.332Z,43.17
2023-03-31T05:21:15.752Z,43.09
2023-03-31T05:21:50.626Z,43.27
2023-03-31T05:22:22.840Z,43.21
2023-03-31T05:22:55.008Z,43.02
2023-03-31T05:23:30.346Z,43.53
2023-03-31T05:24:02.518Z,43.39
2023-03-31T05:24:34.961Z,42.95
2023-03-31T05:25:12.048Z,43.14
2023-03-31T05:25:44.247Z,43.31
2023-03-31T05:26:16.581Z,43.38
2023-03-31T05:26:52.937Z,43.00
2023-03-31T05:27:27.880Z,42.87
2023-03-31T05:28:02.907Z,43.33
2023-03-31T05:28:35.347Z,43.10
2023-03-31T05:29:10.455Z,43.41
2023-03-31T05:29:42.637Z,43.44
2023-03-31T05:30:18.580Z,43.59
2023-03-31T05:30:50.866Z,43.43
2023-03-31T05:31:23.613Z,43.80
2023-03-31T05:31:58.529Z,43.70
2023-03-31T05:32:30.845Z,43.83
2023-03-31T05:33:03.087Z,43.75
2023-03-31T05:33:40.549Z,43.48
2023-03-31T05:34:12.842Z,43.36
2023-03-31T05:34:49.336Z,43.81
2023-03-31T05:35:23.150Z,43.94
2023-03-31T05:35:57.956Z,43.94
2023-03-31T05:36:30.219Z,43.33
2023-03-31T05:37:02.442Z,43.62
2023-03-31T05:37:37.353Z,43.79
2023-03-31T05:38:09.539Z,43.65
2023-03-31T05:38:42.038Z,43.49
2023-03-31T05:39:17.300Z,43.73
2023-03-31T05:39:49.564Z,43.79
2023-03-31T05:40:21.865Z,44.23
2023-03-31T05:40:56.608Z,43.87
2023-03-31T05:41:28.993Z,43.56
2023-03-31T05:42:01.345Z,43.65
2023-03-31T05:42:36.374Z,43.89
2023-03-31T05:43:11.256Z,43.34
2023-03-31T05:43:44.036Z,43.44
2023-03-31T05:44:20.965Z,43.60
2023-03-31T05:44:53.400Z,43.38
2023-03-31T05:45:25.627Z,43.55
2023-03-31T05:46:00.483Z,43.83
2023-03-31T05:46:32.849Z,43.66
2023-03-31T05:47:05.227Z,43.81
2023-03-31T05:47:40.069Z,43.99
2023-03-31T05:48:12.400Z,43.94
2023-03-31T05:48:45.128Z,44.00
2023-03-31T05:49:20.165Z,44.14
2023-03-31T05:49:52.421Z,43.96
2023-03-31T05:50:24.624Z,44.21
2023-03-31T05:51:01.032Z,43.96
2023-03-31T05:51:33.442Z,44.15
2023-03-31T05:52:06.689Z,44.39
2023-03-31T05:52:41.473Z,44.31
2023-03-31T05:53:13.917Z,44.49
2023-03-31T05:53:48.817Z,44.20
2023-03-31T05:54:21.134Z,44.35
2023-03-31T05:54:55.941Z,44.37
2023-03-31T05:55:28.133Z,44.14
2023-03-31T05:56:02.209Z,44.41
2023-03-31T05:56:37.105Z,44.35
2023-03-31T05:57:10.227Z,43.96
2023-03-31T05:57:42.464Z,44.19
2023-03-31T05:58:19.856Z,44.36
2023-03-31T05:58:52.617Z,43.89
2023-03-31T05:59:24.938Z,44.81
2023-03-31T05:59:59.747Z,44.65
2023-03-31T06:00:32.257Z,44.71
2023-03-31T06:01:06.899Z,44.44
2023-03-31T06:01:42.057Z,44.24
2023-03-31T06:02:14.715Z,43.98
2023-03-31T06:02:47.207Z,44.07
2023-03-31T06:03:22.543Z,43.74
2023-03-31T06:03:54.731Z,44.21
2023-03-31T06:04:29.693Z,44.19
2023-03-31T06:05:01.903Z,43.96
2023-03-31T06:05:35.070Z,44.16
2023-03-31T06:06:13.318Z,43.71
2023-03-31T06:06:46.328Z,44.16
2023-03-31T06:07:18.664Z,43.87
2023-03-31T06:07:53.718Z,43.70
2023-03-31T06:08:26.138Z,43.84
2023-03-31T06:09:01.020Z,43.82
2023-03-31T06:09:33.215Z,43.46
2023-03-31T06:10:08.482Z,43.52
2023-03-31T06:10:43.272Z,43.49
2023-03-31T06:11:17.393Z,43.57
2023-03-31T06:11:52.159Z,43.85
2023-03-31T06:12:24.365Z,43.89
2023-03-31T06:12:56.572Z,43.89
2023-03-31T06:13:33.919Z,43.71
2023-03-31T06:14:06.279Z,44.01
2023-03-31T06:14:41.046Z,43.49
2023-03-31T06:15:13.296Z,43.84
2023-03-31T06:15:57.097Z,43.50
2023-03-31T06:16:29.619Z,43.46
2023-03-31T06:17:04.543Z,43.57
2023-03-31T06:17:38.508Z,43.83
2023-03-31T06:18:11.441Z,43.63
2023-03-31T06:18:46.588Z,43.84
2023-03-31T06:19:19.206Z,43.82
2023-03-31T06:19:51.600Z,43.80
2023-03-31T06:20:28.552Z,43.45
2023-03-31T06:21:01.237Z,43.46
2023-03-31T06:21:34.032Z,43.84
2023-03-31T06:22:08.814Z,43.81
2023-03-31T06:22:41.053Z,43.84
2023-03-31T06:23:13.250Z,43.42
2023-03-31T06:23:48.735Z,43.90
2023-03-31T06:24:20.992Z,43.47
2023-03-31T06:24:53.215Z,43.64
2023-03-31T06:25:32.386Z,43.14
2023-03-31T06:26:09.526Z,43.29
2023-03-31T06:26:42.332Z,43.50
2023-03-31T06:27:17.253Z,43.50
2023-03-31T06:27:49.434Z,43.66
2023-03-31T06:28:22.223Z,43.77
2023-03-31T06:28:59.605Z,43.27
2023-03-31T06:29:31.830Z,43.47
2023-03-31T06:30:05.002Z,43.86
2023-03-31T06:30:39.837Z,43.55
2023-03-31T06:31:13.942Z,44.01
2023-03-31T06:31:48.808Z,43.99
2023-03-31T06:32:21.746Z,43.93
2023-03-31T06:32:56.625Z,43.73
2023-03-31T06:33:28.931Z,43.75
2023-03-31T06:34:01.274Z,43.83
2023-03-31T06:34:36.092Z,44.23
2023-03-31T06:35:09.293Z,44.17
2023-03-31T06:35:42.003Z,43.92
2023-03-31T06:36:19.030Z,44.20
2023-03-31T06:36:51.401Z,43.94
2023-03-31T06:37:23.597Z,44.54
2023-03-31T06:37:58.356Z,44.17
2023-03-31T06:38:32.864Z,44.13
2023-03-31T06:39:07.731Z,44.56
2023-03-31T06:39:39.988Z,44.49
2023-03-31T06:40:13.083Z,44.58
2023-03-31T06:40:47.818Z,44.90
2023-03-31T06:41:21.139Z,44.95
2023-03-31T06:41:55.894Z,44.61
2023-03-31T06:42:32.780Z,44.72
2023-03-31T06:43:05.101Z,44.90
2023-03-31T06:43:40.075Z,44.89
2023-03-31T06:44:16.833Z,44.88
2023-03-31T06:44:51.607Z,45.08
2023-03-31T06:45:23.903Z,45.28
2023-03-31T06:45:59.291Z,45.55
2023-03-31T06:46:31.859Z,45.39
2023-03-31T06:47:06.892Z,45.28
2023-03-31T06:47:39.276Z,45.49
2023-03-31T06:48:11.655Z,45.55
2023-03-31T06:48:46.542Z,45.50
2023-03-31T06:49:18.959Z,45.90
2023-03-31T06:49:53.724Z,45.87
2023-03-31T06:50:25.962Z,45.86
2023-03-31T06:51:01.465Z,45.81
2023-03-31T06:51:36.307Z,45.69
2023-03-31T06:52:08.539Z,45.73
2023-03-31T06:52:41.369Z,45.81
2023-03-31T06:53:16.151Z,45.59
2023-03-31T06:53:48.506Z,45.56
2023-03-31T06:54:20.837Z,45.50
2023-03-31T06:54:55.605Z,45.61
2023-03-31T06:55:27.870Z,46.04
2023-03-31T06:56:00.718Z,45.71
2023-03-31T06:56:35.758Z,46.10
2023-03-31T06:57:08.112Z,46.24
2023-03-31T06:57:41.546Z,46.13
2023-03-31T06:58:16.452Z,46.13
2023-03-31T06:58:48.731Z,45.90
2023-03-31T06:59:26.448Z,45.94
2023-03-31T06:59:58.616Z,46.42
2023-03-31T07:00:32.947Z,46.47
2023-03-31T07:01:09.101Z,46.36
2023-03-31T07:01:42.868Z,46.47
2023-03-31T07:02:18.049Z,45.88
2023-03-31T07:02:50.339Z,46.09
2023-03-31T07:03:22.943Z,45.92
2023-03-31T07:03:57.859Z,45.94
2023-03-31T07:04:30.097Z,45.67
2023-03-31T07:05:02.383Z,45.29
2023-03-31T07:05:37.341Z,45.35
2023-03-31T07:06:09.544Z,45.18
2023-03-31T07:06:44.430Z,45.40
2023-03-31T07:07:16.839Z,45.28
2023-03-31T07:07:49.165Z,45.51
2023-03-31T07:08:24.499Z,45.30
2023-03-31T07:08:57.715Z,45.74
2023-03-31T07:09:32.512Z,45.57
2023-03-31T07:10:05.544Z,45.40
2023-03-31T07:10:37.852Z,45.41
2023-03-31T07:11:12.792Z,45.46
2023-03-31T07:11:45.196Z,45.23
2023-03-31T07:12:17.539Z,45.02
2023-03-31T07:12:52.503Z,44.79
2023-03-31T07:13:25.744Z,44.73
2023-03-31T07:14:00.607Z,44.40
2023-03-31T07:14:35.780Z,44.26
2023-03-31T07:15:11.773Z,44.49
2023-03-31T07:15:44.651Z,44.52
2023-03-31T07:16:17.015Z,44.39
2023-03-31T07:16:52.026Z,44.53
2023-03-31T07:17:25.671Z,44.45
2023-03-31T07:18:02.286Z,44.41
2023-03-31T07:18:41.246Z,43.98
2023-03-31T07:19:15.636Z,44.39
2023-03-31T07:19:48.341Z,44.03
2023-03-31T07:20:23.421Z,44.23
2023-03-31T07:20:55.789Z,44.16
2023-03-31T07:21:30.565Z,44.43
2023-03-31T07:22:03.155Z,44.35
2023-03-31T07:22:35.529Z,44.82
2023-03-31T07:23:10.852Z,44.53
2023-03-31T07:23:43.058Z,44.77
2023-03-31T07:24:15.410Z,44.65
2023-03-31T07:24:50.471Z,44.64
2023-03-31T07:25:22.699Z,44.78
2023-03-31T07:25:54.938Z,44.68
2023-03-31T07:26:29.797Z,44.52
2023-03-31T07:27:02.008Z,44.61
2023-03-31T07:27:34.535Z,44.54
2023-03-31T07:28:09.430Z,44.78
2023-03-31T07:28:41.802Z,44.55
2023-03-31T07:29:16.567Z,44.48
2023-03-31T07:29:51.674Z,44.65
2023-03-31T07:30:24.816Z,44.59
2023-03-31T07:30:59.624Z,44.56
2023-03-31T07:31:31.899Z,44.51
2023-03-31T07:32:04.641Z,44.48
2023-03-31T07:32:41.318Z,44.39
2023-03-31T07:33:13.659Z,44.18
2023-03-31T07:33:48.522Z,43.83
2023-03-31T07:34:21.016Z,43.85
2023-03-31T07:34:53.313Z,43.50
2023-03-31T07:35:28.440Z,43.86
2023-03-31T07:36:11.789Z,43.62
2023-03-31T07:36:48.519Z,43.60
2023-03-31T07:37:20.718Z,43.52
2023-03-31T07:37:52.978Z,43.63
2023-03-31T07:38:27.773Z,43.85
2023-03-31T07:39:00.128Z,43.52
2023-03-31T07:39:34.886Z,43.66
2023-03-31T07:40:09.152Z,43.51
2023-03-31T07:40:53.082Z,43.44
2023-03-31T07:41:31.010Z,43.45
2023-03-31T07:42:06.085Z,43.35
2023-03-31T07:42:38.265Z,43.72
2023-03-31T07:43:13.053Z,43.48
2023-03-31T07:43:45.808Z,43.42
2023-03-31T07:44:22.028Z,43.58
2023-03-31T07:44:58.030Z,43.21
2023-03-31T07:45:32.982Z,43.48